createdAt,value
2022-12-27T00:01:31.032Z,60.57
2022-12-27T00:03:57.769Z,60.32
2022-12-27T00:06:25.756Z,61.00
2022-12-27T00:08:52.940Z,59.93
2022-12-27T00:11:22.212Z,60.81
2022-12-27T00:13:49.136Z,60.82
2022-12-27T00:16:17.817Z,60.91
2022-12-27T00:18:45.037Z,61.97
2022-12-27T00:21:12.852Z,60.98
2022-12-27T00:23:43.393Z,61.62
2022-12-27T00:26:15.765Z,61.56
2022-12-27T00:28:42.659Z,61.73
2022-12-27T00:31:09.196Z,62.01
2022-12-27T00:33:37.525Z,61.83
2022-12-27T00:36:05.847Z,61.42
2022-12-27T00:38:32.576Z,61.73
2022-12-27T00:40:59.400Z,61.87
2022-12-27T00:43:26.032Z,62.47
2022-12-27T00:45:52.939Z,62.71
2022-12-27T00:48:19.470Z,63.40
2022-12-27T00:50:46.058Z,63.48
2022-12-27T00:53:12.793Z,64.06
2022-12-27T00:55:42.699Z,64.75
2022-12-27T00:58:09.864Z,63.86
2022-12-27T01:00:36.549Z,63.60
2022-12-27T01:03:03.305Z,63.92
2022-12-27T01:05:30.034Z,64.26
2022-12-27T01:07:56.542Z,64.17
2022-12-27T01:10:23.268Z,64.26
2022-12-27T01:12:49.764Z,64.26
2022-12-27T01:15:16.199Z,63.96
2022-12-27T01:17:42.690Z,63.98
2022-12-27T01:20:09.418Z,64.64
2022-12-27T01:22:36.164Z,64.31
2022-12-27T01:25:02.687Z,64.86
2022-12-27T01:27:29.142Z,65.44
2022-12-27T01:29:55.654Z,65.43
2022-12-27T01:32:22.228Z,65.51
2022-12-27T01:34:50.383Z,64.68
2022-12-27T01:37:17.207Z,65.97
2022-12-27T01:39:44.247Z,65.76
2022-12-27T01:42:38.907Z,66.00
2022-12-27T01:45:18.961Z,64.97
2022-12-27T01:48:31.702Z,65.28
2022-12-27T01:51:01.568Z,65.07
2022-12-27T01:53:34.243Z,65.09
2022-12-27T01:56:06.587Z,65.57
2022-12-27T01:58:40.019Z,64.91
2022-12-27T02:01:11.317Z,66.07
2022-12-27T02:03:43.228Z,65.57
2022-12-27T02:06:11.632Z,65.76
2022-12-27T02:08:49.122Z,65.90
2022-12-27T02:11:16.931Z,67.13
2022-12-27T02:13:45.107Z,66.45
2022-12-27T02:16:19.564Z,66.58
2022-12-27T02:18:46.304Z,66.41
2022-12-27T02:21:31.510Z,66.87
2022-12-27T02:24:11.918Z,66.92
2022-12-27T02:26:49.055Z,67.04
2022-12-27T02:29:24.737Z,66.06
2022-12-27T02:32:04.057Z,66.51
2022-12-27T02:34:38.104Z,65.86
2022-12-27T02:37:08.533Z,65.88
2022-12-27T02:39:38.240Z,66.35
2022-12-27T02:42:24.272Z,66.81
2022-12-27T02:45:09.345Z,66.23
2022-12-27T02:47:55.010Z,66.32
2022-12-27T02:50:40.071Z,66.19
2022-12-27T02:53:11.659Z,66.65
2022-12-27T02:56:27.751Z,66.66
2022-12-27T02:59:18.747Z,67.20
2022-12-27T03:02:23.007Z,66.20
2022-12-27T03:05:08.460Z,66.53
2022-12-27T03:07:34.854Z,67.05
2022-12-27T03:10:29.569Z,67.65
2022-12-27T03:13:38.385Z,67.35
2022-12-27T03:16:26.133Z,67.13
2022-12-27T03:19:12.900Z,67.82
2022-12-27T03:22:05.152Z,68.75
2022-12-27T03:24:53.699Z,67.99
2022-12-27T03:27:28.371Z,68.99
2022-12-27T03:30:15.157Z,67.46
2022-12-27T03:33:05.844Z,68.06
2022-12-27T03:35:38.410Z,67.87
2022-12-27T03:38:05.781Z,67.81
2022-12-27T03:41:16.377Z,67.19
2022-12-27T03:43:42.977Z,67.10
2022-12-27T03:46:46.312Z,68.44
2022-12-27T03:49:34.659Z,68.91
2022-12-27T03:52:24.599Z,68.54
2022-12-27T03:54:52.059Z,68.60
2022-12-27T03:57:21.288Z,68.54
2022-12-27T03:59:48.127Z,68.46
2022-12-27T04:02:14.850Z,68.85
2022-12-27T04:04:41.795Z,68.87
2022-12-27T04:07:08.681Z,68.27
2022-12-27T04:09:53.856Z,68.67
2022-12-27T04:12:39.043Z,67.46
2022-12-27T04:15:24.424Z,68.34
2022-12-27T04:18:09.660Z,68.64
2022-12-27T04:20:54.787Z,68.96
2022-12-27T04:23:39.960Z,68.60
2022-12-27T04:26:25.314Z,68.38
2022-12-27T04:29:10.457Z,69.88
2022-12-27T04:31:55.616Z,69.21
2022-12-27T04:34:40.718Z,68.80
2022-12-27T04:37:07.549Z,68.53
2022-12-27T04:39:34.202Z,68.80
2022-12-27T04:42:19.460Z,67.87
2022-12-27T04:45:04.358Z,68.95
2022-12-27T04:47:50.084Z,69.09
2022-12-27T04:50:44.473Z,68.56
2022-12-27T04:53:31.829Z,69.33
2022-12-27T04:55:58.553Z,68.90
2022-12-27T04:58:25.561Z,68.80
2022-12-27T05:01:14.309Z,68.77
2022-12-27T05:03:41.516Z,69.06
2022-12-27T05:06:08.294Z,69.07
2022-12-27T05:08:53.604Z,69.99
2022-12-27T05:11:38.675Z,69.29
2022-12-27T05:14:11.380Z,68.69
2022-12-27T05:16:39.954Z,68.88
2022-12-27T05:19:07.995Z,70.01
2022-12-27T05:22:05.987Z,69.67
2022-12-27T05:24:51.277Z,69.58
2022-12-27T05:27:18.359Z,69.11
2022-12-27T05:29:45.852Z,69.90
2022-12-27T05:32:13.638Z,69.49
2022-12-27T05:34:40.826Z,68.87
2022-12-27T05:37:07.626Z,67.92
2022-12-27T05:39:34.090Z,68.69
2022-12-27T05:42:00.744Z,68.83
2022-12-27T05:44:27.247Z,69.28
2022-12-27T05:46:54.681Z,68.33
2022-12-27T05:49:21.368Z,68.04
2022-12-27T05:51:47.878Z,67.76
2022-12-27T05:54:14.626Z,67.30
2022-12-27T05:56:41.245Z,66.98
2022-12-27T05:59:08.109Z,66.71
2022-12-27T06:01:34.851Z,67.56
2022-12-27T06:04:01.445Z,66.83
2022-12-27T06:06:28.861Z,66.88
2022-12-27T06:08:55.475Z,67.69
2022-12-27T06:11:22.239Z,67.51
2022-12-27T06:13:51.519Z,67.91
2022-12-27T06:16:19.283Z,68.85
2022-12-27T06:18:45.961Z,68.16
2022-12-27T06:21:15.242Z,68.17
2022-12-27T06:23:44.607Z,68.16
2022-12-27T06:26:14.522Z,69.34
2022-12-27T06:28:41.237Z,69.13
2022-12-27T06:31:07.744Z,69.22
2022-12-27T06:33:35.274Z,68.18
2022-12-27T06:36:13.312Z,68.33
2022-12-27T06:38:40.590Z,68.17
2022-12-27T06:41:09.143Z,68.43
2022-12-27T06:43:36.135Z,69.08
2022-12-27T06:46:04.834Z,69.99
2022-12-27T06:48:31.721Z,68.78
2022-12-27T06:50:58.782Z,70.35
2022-12-27T06:53:25.223Z,69.31
2022-12-27T06:55:51.920Z,69.30
2022-12-27T06:58:18.429Z,68.74
2022-12-27T07:00:44.991Z,69.99
2022-12-27T07:03:11.528Z,69.37
2022-12-27T07:05:38.214Z,69.52
2022-12-27T07:08:05.406Z,70.43
2022-12-27T07:10:32.026Z,69.54
2022-12-27T07:12:58.888Z,68.97
2022-12-27T07:15:25.380Z,68.65
2022-12-27T07:17:52.240Z,68.78
2022-12-27T07:20:18.791Z,70.08
2022-12-27T07:22:45.359Z,69.67
2022-12-27T07:25:11.844Z,68.99
2022-12-27T07:27:38.364Z,69.05
2022-12-27T07:30:05.634Z,69.62
2022-12-27T07:32:32.352Z,68.89
2022-12-27T07:34:59.026Z,69.14
2022-12-27T07:37:25.499Z,69.43
2022-12-27T07:39:52.002Z,68.99
2022-12-27T07:42:18.522Z,70.08
2022-12-27T07:44:45.005Z,69.79
2022-12-27T07:47:11.486Z,69.69
2022-12-27T07:49:37.968Z,69.15
2022-12-27T07:52:04.482Z,69.42
2022-12-27T07:54:30.927Z,69.86
2022-12-27T07:56:57.412Z,69.41
2022-12-27T07:59:23.954Z,69.34
2022-12-27T08:02:05.689Z,69.21
2022-12-27T08:04:34.903Z,68.97
2022-12-27T08:07:07.557Z,68.89
2022-12-27T08:09:36.950Z,69.50
2022-12-27T08:12:03.904Z,70.31
2022-12-27T08:14:30.567Z,68.70
2022-12-27T08:17:02.174Z,69.26
2022-12-27T08:19:28.647Z,68.12
2022-12-27T08:21:55.132Z,68.20
2022-12-27T08:24:21.596Z,68.79
2022-12-27T08:26:48.431Z,67.20
2022-12-27T08:29:14.889Z,69.19
2022-12-27T08:31:41.675Z,68.91
2022-12-27T08:34:08.221Z,68.13
2022-12-27T08:36:54.583Z,68.29
2022-12-27T08:39:21.218Z,68.79
2022-12-27T08:41:47.994Z,68.07
2022-12-27T08:44:15.389Z,67.72
2022-12-27T08:46:41.872Z,67.66
2022-12-27T08:49:08.389Z,67.60
2022-12-27T08:51:40.759Z,67.63
2022-12-27T08:54:07.953Z,68.25
2022-12-27T08:56:34.450Z,68.23
2022-12-27T08:59:01.155Z,67.06
2022-12-27T09:01:27.992Z,67.30
2022-12-27T09:03:54.590Z,66.84
2022-12-27T09:06:23.113Z,67.52
2022-12-27T09:08:51.020Z,67.66
2022-12-27T09:11:20.086Z,68.21
2022-12-27T09:13:47.084Z,67.74
2022-12-27T09:16:18.874Z,66.23
2022-12-27T09:18:48.875Z,66.57
2022-12-27T09:21:17.090Z,66.17
2022-12-27T09:23:44.428Z,63.74
2022-12-27T09:26:15.948Z,60.63
2022-12-27T09:28:42.923Z,55.19
2022-12-27T09:31:10.880Z,51.74
2022-12-27T09:33:38.073Z,55.87
2022-12-27T09:36:11.561Z,52.18
2022-12-27T09:38:38.631Z,55.16
2022-12-27T09:41:19.291Z,56.75
2022-12-27T09:44:04.035Z,56.33
2022-12-27T09:46:40.987Z,54.19
2022-12-27T09:49:20.595Z,53.57
2022-12-27T09:51:51.935Z,47.75
2022-12-27T09:54:23.900Z,45.82
2022-12-27T09:59:40.275Z,39.77
2022-12-27T10:02:21.672Z,40.44
2022-12-27T10:07:57.197Z,42.39
2022-12-27T10:10:35.110Z,41.13
2022-12-27T10:13:20.260Z,42.17
2022-12-27T10:16:18.121Z,43.14
2022-12-27T10:19:07.677Z,41.51
2022-12-27T10:21:36.208Z,48.64
2022-12-27T10:24:11.770Z,49.30
2022-12-27T10:26:38.892Z,52.98
2022-12-27T10:29:17.794Z,51.82
2022-12-27T10:31:44.484Z,53.72
2022-12-27T10:34:15.295Z,48.46
2022-12-27T10:36:42.353Z,46.87
2022-12-27T10:39:29.938Z,47.36
2022-12-27T10:41:59.521Z,47.75
2022-12-27T10:44:26.065Z,49.38
2022-12-27T10:46:54.075Z,46.82
2022-12-27T10:49:29.300Z,46.67
2022-12-27T10:51:59.104Z,46.59
2022-12-27T10:54:28.039Z,40.56
2022-12-27T10:56:56.124Z,42.80
2022-12-27T10:59:27.957Z,42.76
2022-12-27T11:02:01.685Z,39.36
2022-12-27T11:04:30.505Z,39.06
2022-12-27T11:07:01.756Z,37.96
2022-12-27T11:09:37.918Z,37.57
2022-12-27T11:12:24.816Z,39.44
2022-12-27T11:15:06.304Z,40.99
2022-12-27T11:17:42.111Z,40.05
2022-12-27T11:20:12.452Z,40.62
2022-12-27T11:22:48.633Z,39.06
2022-12-27T11:25:16.293Z,40.12
2022-12-27T11:27:56.076Z,42.27
2022-12-27T11:30:27.471Z,43.54
2022-12-27T11:32:54.095Z,42.53
2022-12-27T11:35:21.845Z,40.70
2022-12-27T11:37:49.152Z,40.90
2022-12-27T11:40:30.576Z,39.12
2022-12-27T11:43:08.218Z,42.07
2022-12-27T11:45:38.079Z,44.94
2022-12-27T11:48:14.859Z,44.18
2022-12-27T11:50:55.938Z,43.17
2022-12-27T11:54:00.147Z,44.13
2022-12-27T11:56:28.980Z,43.66
2022-12-27T11:59:20.466Z,47.74
2022-12-27T12:01:56.089Z,48.36
2022-12-27T12:04:48.746Z,44.21
2022-12-27T12:07:18.342Z,39.67
2022-12-27T12:10:02.118Z,40.04
2022-12-27T12:12:43.200Z,38.91
2022-12-27T12:15:39.173Z,41.81
2022-12-27T12:18:12.423Z,42.23
2022-12-27T12:20:39.069Z,44.04
2022-12-27T12:23:05.546Z,42.10
2022-12-27T12:26:08.937Z,39.97
2022-12-27T12:28:58.735Z,35.55
2022-12-27T12:31:49.472Z,38.57
2022-12-27T12:34:51.159Z,40.37
2022-12-27T12:37:40.875Z,45.74
2022-12-27T12:40:29.463Z,53.07
2022-12-27T12:42:58.944Z,53.20
2022-12-27T12:46:03.307Z,52.25
2022-12-27T12:48:58.109Z,53.40
2022-12-27T12:51:38.807Z,52.80
2022-12-27T12:54:14.351Z,53.33
2022-12-27T12:56:54.523Z,53.91
2022-12-27T12:59:59.512Z,55.03
2022-12-27T13:02:35.417Z,54.61
2022-12-27T13:05:13.597Z,54.48
2022-12-27T13:08:09.948Z,55.49
2022-12-27T13:10:57.644Z,55.81
2022-12-27T13:13:34.270Z,56.10
2022-12-27T13:16:24.274Z,57.09
2022-12-27T13:19:37.303Z,56.85
2022-12-27T13:22:16.520Z,58.00
2022-12-27T13:25:08.450Z,58.31
2022-12-27T13:27:41.129Z,58.70
2022-12-27T13:30:20.154Z,57.19
2022-12-27T13:33:01.921Z,58.75
2022-12-27T13:35:35.623Z,57.66
2022-12-27T13:38:26.673Z,56.58
2022-12-27T13:41:14.561Z,57.15
2022-12-27T13:44:01.544Z,56.96
2022-12-27T13:46:40.034Z,58.29
2022-12-27T13:49:27.776Z,58.28
2022-12-27T13:52:02.639Z,59.21
2022-12-27T13:54:56.557Z,58.60
2022-12-27T13:57:26.232Z,58.86
2022-12-27T14:00:04.357Z,58.30
2022-12-27T14:02:37.425Z,57.64
2022-12-27T14:05:19.445Z,56.68
2022-12-27T14:08:04.243Z,57.42
2022-12-27T14:10:37.645Z,57.52
2022-12-27T14:13:08.769Z,56.56
2022-12-27T14:15:41.340Z,56.15
2022-12-27T14:18:23.014Z,56.14
2022-12-27T14:21:01.029Z,56.78
2022-12-27T14:23:40.417Z,57.71
2022-12-27T14:26:25.278Z,56.58
2022-12-27T14:28:59.760Z,58.10
2022-12-27T14:31:51.198Z,57.66
2022-12-27T14:34:44.157Z,57.67
2022-12-27T14:38:05.266Z,58.09
2022-12-27T14:40:35.164Z,57.48
2022-12-27T14:43:23.513Z,58.42
2022-12-27T14:46:29.520Z,57.51
2022-12-27T14:49:17.396Z,59.39
2022-12-27T14:52:03.407Z,58.48
2022-12-27T14:54:54.613Z,58.61
2022-12-27T14:57:42.623Z,58.12
2022-12-27T15:00:15.830Z,58.50
2022-12-27T15:02:54.528Z,60.11
2022-12-27T15:05:58.455Z,60.67
2022-12-27T15:08:43.702Z,60.96
2022-12-27T15:11:31.505Z,60.17
2022-12-27T15:14:19.704Z,59.51
2022-12-27T15:16:56.413Z,60.58
2022-12-27T15:19:28.788Z,61.69
2022-12-27T15:21:58.405Z,61.22
2022-12-27T15:24:45.120Z,60.77
2022-12-27T15:27:20.384Z,60.41
2022-12-27T15:30:14.864Z,61.35
2022-12-27T15:32:48.256Z,61.50
2022-12-27T15:35:17.771Z,62.00
2022-12-27T15:37:47.412Z,61.60
2022-12-27T15:40:23.212Z,60.96
2022-12-27T15:43:10.815Z,61.55
2022-12-27T15:45:53.326Z,62.79
2022-12-27T15:48:57.358Z,62.05
2022-12-27T15:51:45.898Z,61.63
2022-12-27T15:54:30.734Z,61.89
2022-12-27T15:57:20.522Z,61.85
2022-12-27T15:59:51.140Z,61.89
2022-12-27T16:02:24.749Z,61.96
2022-12-27T16:05:22.155Z,61.25
2022-12-27T16:08:29.351Z,62.23
2022-12-27T16:10:56.565Z,60.33
2022-12-27T16:13:41.820Z,61.14
2022-12-27T16:16:38.570Z,61.76
2022-12-27T16:19:18.193Z,63.44
2022-12-27T16:21:46.071Z,62.39
2022-12-27T16:24:17.013Z,63.46
2022-12-27T16:26:52.104Z,63.38
2022-12-27T16:29:26.466Z,63.89
2022-12-27T16:32:13.159Z,62.04
2022-12-27T16:34:40.365Z,61.41
2022-12-27T16:37:22.560Z,60.95
2022-12-27T16:40:04.862Z,61.95
2022-12-27T16:42:54.109Z,62.18
2022-12-27T16:45:39.272Z,62.06
2022-12-27T16:48:20.787Z,61.18
2022-12-27T16:51:13.401Z,60.80
2022-12-27T16:54:01.194Z,61.01
2022-12-27T16:56:39.022Z,61.34
2022-12-27T16:59:51.044Z,60.99
2022-12-27T17:02:32.353Z,61.48
2022-12-27T17:05:01.477Z,60.95
2022-12-27T17:07:50.287Z,61.49
2022-12-27T17:10:30.160Z,59.77
2022-12-27T17:13:20.938Z,60.47
2022-12-27T17:16:28.001Z,60.04
2022-12-27T17:19:00.687Z,61.23
2022-12-27T17:21:33.013Z,60.14
2022-12-27T17:24:11.514Z,60.61
2022-12-27T17:26:59.886Z,61.21
2022-12-27T17:29:35.989Z,60.35
2022-12-27T17:32:20.560Z,61.08
2022-12-27T17:34:59.548Z,61.52
2022-12-27T17:37:38.244Z,60.51
2022-12-27T17:40:10.735Z,61.12
2022-12-27T17:43:17.767Z,60.10
2022-12-27T17:45:55.704Z,59.87
2022-12-27T17:48:29.754Z,60.17
2022-12-27T17:51:01.549Z,61.47
2022-12-27T17:53:47.341Z,60.47
2022-12-27T17:56:38.554Z,60.30
2022-12-27T17:59:08.070Z,59.76
2022-12-27T18:01:49.039Z,60.22
2022-12-27T18:04:29.181Z,60.55
2022-12-27T18:06:58.306Z,59.69
2022-12-27T18:09:37.075Z,59.32
2022-12-27T18:12:13.966Z,59.50
2022-12-27T18:14:40.888Z,59.23
2022-12-27T18:17:09.770Z,58.64
2022-12-27T18:19:36.474Z,58.82
2022-12-27T18:22:03.433Z,57.95
2022-12-27T18:24:32.356Z,57.85
2022-12-27T18:27:07.275Z,59.00
2022-12-27T18:29:34.262Z,59.42
2022-12-27T18:32:04.626Z,58.29
2022-12-27T18:34:51.491Z,59.39
2022-12-27T18:37:21.125Z,58.15
2022-12-27T18:40:03.151Z,59.05
2022-12-27T18:42:51.456Z,58.79
2022-12-27T18:45:31.679Z,57.85
2022-12-27T18:48:02.055Z,58.97
2022-12-27T18:50:30.591Z,59.32
2022-12-27T18:53:33.358Z,60.04
2022-12-27T18:56:05.212Z,60.14
2022-12-27T18:58:32.570Z,59.57
2022-12-27T19:01:19.714Z,59.84
2022-12-27T19:04:14.377Z,60.11
2022-12-27T19:06:53.269Z,60.74
2022-12-27T19:09:21.069Z,60.39
2022-12-27T19:12:02.590Z,60.64
2022-12-27T19:14:47.790Z,60.22
2022-12-27T19:17:26.483Z,60.33
2022-12-27T19:19:54.823Z,60.67
2022-12-27T19:22:41.692Z,61.13
2022-12-27T19:25:28.162Z,61.71
2022-12-27T19:28:05.781Z,61.76
2022-12-27T19:30:34.248Z,60.90
2022-12-27T19:33:02.656Z,61.89
2022-12-27T19:35:29.276Z,61.67
2022-12-27T19:37:57.241Z,61.27
2022-12-27T19:40:24.220Z,61.48
2022-12-27T19:42:50.689Z,61.65
2022-12-27T19:45:18.020Z,61.99
2022-12-27T19:47:45.359Z,60.94
2022-12-27T19:50:12.029Z,60.82
2022-12-27T19:52:39.021Z,61.19
2022-12-27T19:55:08.354Z,61.01
2022-12-27T19:57:34.972Z,61.56
2022-12-27T20:00:05.357Z,61.18
2022-12-27T20:02:35.197Z,61.53
2022-12-27T20:05:02.031Z,61.82
2022-12-27T20:07:28.490Z,61.13
2022-12-27T20:09:55.011Z,61.29
2022-12-27T20:12:21.774Z,61.46
2022-12-27T20:14:48.640Z,61.58
2022-12-27T20:17:15.589Z,60.72
2022-12-27T20:19:42.093Z,61.03
2022-12-27T20:22:08.569Z,62.11
2022-12-27T20:24:36.932Z,62.35
2022-12-27T20:27:04.191Z,61.95
2022-12-27T20:29:30.761Z,61.66
2022-12-27T20:31:58.259Z,61.80
2022-12-27T20:34:24.829Z,61.64
2022-12-27T20:36:54.995Z,62.15
2022-12-27T20:39:21.591Z,61.95
2022-12-27T20:41:48.087Z,61.90
2022-12-27T20:44:15.317Z,61.23
2022-12-27T20:46:41.914Z,61.21
2022-12-27T20:49:08.694Z,61.61
2022-12-27T20:51:35.216Z,62.29
2022-12-27T20:54:02.864Z,61.82
2022-12-27T20:56:29.840Z,61.74
2022-12-27T20:58:57.371Z,61.21
2022-12-27T21:01:25.659Z,61.00
2022-12-27T21:03:53.767Z,60.68
2022-12-27T21:06:22.908Z,60.64
2022-12-27T21:08:56.190Z,60.66
2022-12-27T21:11:33.129Z,60.78
2022-12-27T21:14:03.714Z,60.94
2022-12-27T21:16:32.358Z,60.45
2022-12-27T21:19:03.278Z,60.46
2022-12-27T21:21:31.266Z,61.18
2022-12-27T21:23:58.688Z,60.04
2022-12-27T21:26:28.139Z,60.53
2022-12-27T21:28:55.159Z,59.58
2022-12-27T21:31:22.160Z,61.17
2022-12-27T21:33:49.027Z,60.99
2022-12-27T21:36:18.937Z,60.32
2022-12-27T21:38:45.752Z,60.74
2022-12-27T21:41:19.605Z,60.23
2022-12-27T21:43:47.073Z,60.42
2022-12-27T21:46:16.650Z,61.45
2022-12-27T21:48:43.654Z,60.24
2022-12-27T21:51:18.679Z,60.37
2022-12-27T21:53:46.135Z,59.53
2022-12-27T21:56:16.239Z,59.67
2022-12-27T21:58:43.720Z,59.33
2022-12-27T22:01:24.449Z,58.96
2022-12-27T22:03:52.136Z,60.54
2022-12-27T22:06:21.748Z,60.06
2022-12-27T22:08:50.885Z,59.78
2022-12-27T22:11:18.263Z,59.68
2022-12-27T22:13:45.157Z,59.37
2022-12-27T22:16:14.481Z,58.89
2022-12-27T22:18:42.765Z,60.18
2022-12-27T22:21:11.856Z,59.80
2022-12-27T22:23:40.614Z,59.82
2022-12-27T22:26:16.356Z,59.43
2022-12-27T22:28:43.716Z,59.79
2022-12-27T22:31:12.907Z,59.20
2022-12-27T22:33:39.785Z,60.02
2022-12-27T22:36:08.787Z,59.07
2022-12-27T22:38:36.800Z,59.49
2022-12-27T22:41:11.020Z,59.23
2022-12-27T22:43:38.676Z,60.08
2022-12-27T22:46:07.504Z,59.72
2022-12-27T22:48:34.689Z,59.54
2022-12-27T22:51:14.712Z,59.04
2022-12-27T22:53:41.307Z,59.52
2022-12-27T22:56:15.734Z,59.58
2022-12-27T22:58:42.925Z,60.20
2022-12-27T23:01:14.361Z,60.21
2022-12-27T23:03:41.646Z,60.38
2022-12-27T23:06:10.707Z,60.19
2022-12-27T23:08:37.308Z,59.31
2022-12-27T23:11:14.859Z,60.76
2022-12-27T23:13:41.554Z,60.51
2022-12-27T23:16:08.765Z,60.02
2022-12-27T23:18:41.877Z,60.09
2022-12-27T23:21:20.675Z,59.91
2022-12-27T23:23:50.511Z,60.05
2022-12-27T23:26:20.370Z,59.15
2022-12-27T23:28:47.815Z,59.02
2022-12-27T23:31:14.894Z,60.17
2022-12-27T23:33:42.825Z,60.70
2022-12-27T23:36:10.779Z,60.76
2022-12-27T23:38:37.985Z,60.65
2022-12-27T23:41:06.601Z,59.81
2022-12-27T23:43:55.010Z,60.33
2022-12-27T23:46:31.070Z,60.16
2022-12-27T23:48:59.584Z,59.22
2022-12-27T23:51:28.083Z,59.85
2022-12-27T23:53:54.955Z,59.44
2022-12-27T23:56:27.309Z,59.53
2022-12-27T23:58:55.467Z,60.06
